KDTW/DTW METAR and TAF weather

Enter ICAO airport designator
Station Type Date Time Source
KDTW METAR 2018/12/10 19:40 UTC NOAA

KDTW 101940Z 00000KT 6SM HZ OVC015 M03/M07 A3021 RMK AO2 T10281072


Station Type Date Time Source
KDTW Decoded METAR 2018/12/10 19:40 UTC NOAA

DETROIT METROPOLITAN, MI, United States (KDTW) 42-14N 83-20W 195M
Dec 10, 2018 - 02:40 PM EST / 2018.12.10 1940 UTC
Wind: Calm:0
Visibility: 6 mile(s):0
Sky conditions: overcast
Weather: haze
Temperature: 27.0 F (-2.8 C)
Dew Point: 19.0 F (-7.2 C)
Relative Humidity: 71%
Pressure (altimeter): 30.21 in. Hg (1023 hPa)
ob: KDTW 101940Z 00000KT 6SM HZ OVC015 M03/M07 A3021 RMK AO2 T10281072
cycle: 19

Station Type Date Time Source
KDTW TAF 2018/12/10 18:58 UTC NOAA

TAF COR KDTW 101758Z 1018/1124 27006KT 6SM HZ OVC012
FM102100 23009KT P6SM BKN025
TEMPO 1021/1024 SCT025
FM110600 23009KT P6SM OVC012
FM111800 27007KT P6SM OVC015


Example: see airport list